createdAt,value
2023-12-13T00:00:09.926Z,101736.56
2023-12-13T00:02:42.653Z,101738.80
2023-12-13T00:04:52.835Z,101729.42
2023-12-13T00:07:03.411Z,101723.29
2023-12-13T00:09:13.472Z,101724.74
2023-12-13T00:11:23.242Z,101726.17
2023-12-13T00:13:33.347Z,101723.12
2023-12-13T00:15:43.544Z,101721.50
2023-12-13T00:17:53.589Z,101718.59
2023-12-13T00:20:04.151Z,101719.58
2023-12-13T00:22:14.090Z,101719.98
2023-12-13T00:24:24.787Z,101719.89
2023-12-13T00:26:34.524Z,101723.80
2023-12-13T00:28:44.705Z,101730.18
2023-12-13T00:30:54.611Z,101733.48
2023-12-13T00:33:04.466Z,101734.05
2023-12-13T00:35:14.498Z,101743.18
2023-12-13T00:37:25.618Z,101749.94
2023-12-13T00:39:35.443Z,101757.95
2023-12-13T00:41:45.392Z,101757.98
2023-12-13T00:43:55.515Z,101754.64
2023-12-13T00:46:06.051Z,101756.35
2023-12-13T00:48:15.905Z,101755.16
2023-12-13T00:50:26.168Z,101751.46
2023-12-13T00:52:36.589Z,101759.51
2023-12-13T00:54:46.676Z,101752.77
2023-12-13T00:56:56.823Z,101753.71
2023-12-13T00:59:06.653Z,101755.30
2023-12-13T01:01:16.595Z,101762.59
2023-12-13T01:03:26.607Z,101753.80
2023-12-13T01:05:36.666Z,101756.79
2023-12-13T01:07:46.596Z,101757.08
2023-12-13T01:09:56.477Z,101754.58
2023-12-13T01:12:06.375Z,101754.81
2023-12-13T01:14:16.240Z,101750.08
2023-12-13T01:16:26.436Z,101757.89
2023-12-13T01:18:36.360Z,101757.66
2023-12-13T01:20:46.285Z,101757.37
2023-12-13T01:22:56.084Z,101748.56
2023-12-13T01:25:05.881Z,101745.38
2023-12-13T01:27:15.760Z,101748.73
2023-12-13T01:29:25.620Z,101747.21
2023-12-13T01:31:37.181Z,101755.21
2023-12-13T01:33:47.308Z,101755.37
2023-12-13T01:35:57.196Z,101754.37
2023-12-13T01:38:07.111Z,101758.73
2023-12-13T01:40:17.045Z,101751.41
2023-12-13T01:42:27.120Z,101747.39
2023-12-13T01:44:36.978Z,101746.06
2023-12-13T01:46:47.816Z,101748.13
2023-12-13T01:48:57.845Z,101745.09
2023-12-13T01:51:08.036Z,101740.27
2023-12-13T01:53:19.146Z,101739.16
2023-12-13T01:55:28.934Z,101739.70
2023-12-13T01:57:39.222Z,101746.27
2023-12-13T01:59:49.057Z,101739.37
2023-12-13T02:01:59.178Z,101736.81
2023-12-13T02:04:09.596Z,101733.61
2023-12-13T02:06:20.193Z,101731.77
2023-12-13T02:08:30.699Z,101726.11
2023-12-13T02:10:40.753Z,101731.86
2023-12-13T02:12:52.876Z,101729.60
2023-12-13T02:15:02.711Z,101727.26
2023-12-13T02:17:15.596Z,101735.00
2023-12-13T02:19:25.604Z,101733.88
2023-12-13T02:21:37.317Z,101733.45
2023-12-13T02:23:47.107Z,101734.03
2023-12-13T02:26:00.436Z,101727.30
2023-12-13T02:28:10.734Z,101720.41
2023-12-13T02:30:21.001Z,101719.61
2023-12-13T02:32:35.052Z,101719.52
2023-12-13T02:34:45.136Z,101717.79
2023-12-13T02:36:54.973Z,101723.48
2023-12-13T02:39:06.284Z,101722.15
2023-12-13T02:41:16.075Z,101718.48
2023-12-13T02:43:26.443Z,101718.52
2023-12-13T02:45:36.407Z,101718.45
2023-12-13T02:47:46.605Z,101718.52
2023-12-13T02:49:56.754Z,101730.70
2023-12-13T02:52:06.655Z,101728.74
2023-12-13T02:54:16.602Z,101732.20
2023-12-13T02:56:26.406Z,101729.16
2023-12-13T02:58:36.206Z,101727.98
2023-12-13T03:00:46.124Z,101736.13
2023-12-13T03:02:56.186Z,101732.20
2023-12-13T03:05:06.786Z,101729.92
2023-12-13T03:07:16.809Z,101728.86
2023-12-13T03:09:26.626Z,101730.52
2023-12-13T03:11:37.773Z,101725.94
2023-12-13T03:13:47.869Z,101727.84
2023-12-13T03:15:57.793Z,101717.66
2023-12-13T03:18:08.167Z,101722.33
2023-12-13T03:20:18.282Z,101716.02
2023-12-13T03:22:28.175Z,101712.55
2023-12-13T03:24:38.710Z,101712.35
2023-12-13T03:26:49.052Z,101713.73
2023-12-13T03:28:59.436Z,101721.61
2023-12-13T03:31:13.187Z,101722.69
2023-12-13T03:33:23.483Z,101727.90
2023-12-13T03:35:33.496Z,101720.45
2023-12-13T03:37:43.347Z,101723.79
2023-12-13T03:39:53.430Z,101721.70
2023-12-13T03:42:03.869Z,101717.32
2023-12-13T03:44:14.063Z,101716.69
2023-12-13T03:46:25.975Z,101710.67
2023-12-13T03:48:36.229Z,101700.02
2023-12-13T03:50:46.152Z,101698.55
2023-12-13T03:52:56.069Z,101701.79
2023-12-13T03:55:05.990Z,101694.00
2023-12-13T03:57:15.794Z,101698.69
2023-12-13T03:59:25.762Z,101700.69
2023-12-13T04:01:35.698Z,101701.48
2023-12-13T04:03:46.479Z,101697.77
2023-12-13T04:05:56.855Z,101697.02
2023-12-13T04:08:06.876Z,101697.67
2023-12-13T04:10:16.882Z,101705.71
2023-12-13T04:12:26.806Z,101698.77
2023-12-13T04:14:36.936Z,101692.44
2023-12-13T04:16:47.156Z,101695.08
2023-12-13T04:18:57.450Z,101694.23
2023-12-13T04:21:07.774Z,101694.70
2023-12-13T04:23:18.000Z,101691.85
2023-12-13T04:25:27.829Z,101689.16
2023-12-13T04:27:37.697Z,101695.62
2023-12-13T04:29:47.733Z,101691.15
2023-12-13T04:32:00.064Z,101691.77
2023-12-13T04:34:10.536Z,101692.80
2023-12-13T04:37:26.347Z,101690.71
2023-12-13T04:39:38.547Z,101688.23
2023-12-13T04:41:49.024Z,101687.77
2023-12-13T04:43:59.288Z,101686.73
2023-12-13T04:46:09.602Z,101693.38
2023-12-13T04:48:19.612Z,101691.94
2023-12-13T04:50:30.162Z,101694.05
2023-12-13T04:52:40.850Z,101698.58
2023-12-13T04:54:52.425Z,101702.48
2023-12-13T04:57:03.541Z,101707.14
2023-12-13T04:59:13.254Z,101717.96
2023-12-13T05:01:24.219Z,101717.03
2023-12-13T05:03:34.154Z,101717.32
2023-12-13T05:05:44.193Z,101707.33
2023-12-13T05:07:54.076Z,101700.44
2023-12-13T05:10:03.952Z,101705.46
2023-12-13T05:12:14.025Z,101697.04
2023-12-13T05:14:24.270Z,101688.02
2023-12-13T05:16:34.175Z,101698.07
2023-12-13T05:18:44.117Z,101706.32
2023-12-13T05:20:54.618Z,101716.77
2023-12-13T05:23:04.764Z,101715.14
2023-12-13T05:25:14.736Z,101713.20
2023-12-13T05:27:24.630Z,101713.02
2023-12-13T05:29:34.751Z,101704.02
2023-12-13T05:31:45.155Z,101710.50
2023-12-13T05:33:55.583Z,101700.75
2023-12-13T05:36:05.566Z,101702.17
2023-12-13T05:38:15.541Z,101696.40
2023-12-13T05:40:25.374Z,101699.92
2023-12-13T05:42:35.698Z,101702.11
2023-12-13T05:44:45.570Z,101704.14
2023-12-13T05:46:55.533Z,101701.11
2023-12-13T05:49:05.490Z,101696.76
2023-12-13T05:51:15.797Z,101695.05
2023-12-13T05:53:25.585Z,101692.64
2023-12-13T05:55:36.195Z,101682.52
2023-12-13T05:57:46.088Z,101688.79
2023-12-13T06:00:28.139Z,101678.42
2023-12-13T06:02:54.684Z,101676.63
2023-12-13T06:05:09.959Z,101674.13
2023-12-13T06:07:22.765Z,101669.61
2023-12-13T06:09:35.549Z,101659.14
2023-12-13T06:11:47.986Z,101657.86
2023-12-13T06:14:00.822Z,101658.15
2023-12-13T06:16:15.472Z,101656.44
2023-12-13T06:18:28.012Z,101660.58
2023-12-13T06:20:40.469Z,101658.95
2023-12-13T06:22:53.332Z,101656.05
2023-12-13T06:25:05.914Z,101665.56
2023-12-13T06:27:18.704Z,101675.10
2023-12-13T06:29:31.200Z,101671.95
2023-12-13T06:31:43.756Z,101678.55
2023-12-13T06:33:56.235Z,101677.01
2023-12-13T06:36:09.295Z,101660.23
2023-12-13T06:38:21.862Z,101657.48
2023-12-13T06:40:34.745Z,101656.61
2023-12-13T06:42:47.418Z,101663.52
2023-12-13T06:45:00.295Z,101666.44
2023-12-13T06:47:13.027Z,101670.35
2023-12-13T06:49:29.504Z,101672.82
2023-12-13T06:51:42.223Z,101679.73
2023-12-13T06:53:59.742Z,101687.17
2023-12-13T06:56:13.648Z,101673.10
2023-12-13T06:58:26.567Z,101670.73
2023-12-13T07:00:39.104Z,101667.63
2023-12-13T07:02:51.883Z,101667.89
2023-12-13T07:05:04.427Z,101658.32
2023-12-13T07:07:17.437Z,101656.02
2023-12-13T07:09:30.419Z,101649.52
2023-12-13T07:11:42.789Z,101652.36
2023-12-13T07:13:55.440Z,101649.60
2023-12-13T07:16:08.848Z,101651.94
2023-12-13T07:18:23.885Z,101649.02
2023-12-13T07:20:37.231Z,101647.35
2023-12-13T07:22:51.736Z,101652.45
2023-12-13T07:25:04.610Z,101647.21
2023-12-13T07:27:17.201Z,101640.14
2023-12-13T07:29:32.047Z,101638.52
2023-12-13T07:31:46.247Z,101641.85
2023-12-13T07:34:02.798Z,101625.67
2023-12-13T07:36:17.213Z,101627.42
2023-12-13T07:38:31.031Z,101618.02
2023-12-13T07:40:46.514Z,101616.27
2023-12-13T07:43:01.214Z,101610.73
2023-12-13T07:45:16.124Z,101609.48
2023-12-13T07:47:28.567Z,101609.40
2023-12-13T07:49:41.807Z,101605.25
2023-12-13T07:51:54.528Z,101609.81
2023-12-13T07:54:08.668Z,101592.73
2023-12-13T07:56:27.800Z,101599.89
2023-12-13T07:58:40.872Z,101597.19
2023-12-13T08:00:53.741Z,101597.42
2023-12-13T08:03:06.714Z,101594.78
2023-12-13T08:05:22.080Z,101596.20
2023-12-13T08:07:34.930Z,101592.76
2023-12-13T08:09:47.474Z,101593.05
2023-12-13T08:12:00.758Z,101597.61
2023-12-13T08:14:13.246Z,101601.11
2023-12-13T08:16:25.993Z,101600.79
2023-12-13T08:18:38.661Z,101593.85
2023-12-13T08:20:51.485Z,101595.73
2023-12-13T08:23:06.144Z,101598.11
2023-12-13T08:25:19.175Z,101591.98
2023-12-13T08:27:32.377Z,101600.08
2023-12-13T08:29:45.428Z,101602.58
2023-12-13T08:31:57.798Z,101600.27
2023-12-13T08:34:10.587Z,101601.39
2023-12-13T08:36:24.252Z,101594.03
2023-12-13T08:38:36.858Z,101599.02
2023-12-13T08:40:49.999Z,101592.81
2023-12-13T08:43:02.669Z,101588.42
2023-12-13T08:45:17.106Z,101582.64
2023-12-13T08:47:30.411Z,101579.75
2023-12-13T08:49:44.390Z,101580.46
2023-12-13T08:51:57.701Z,101579.83
2023-12-13T08:54:11.858Z,101580.77
2023-12-13T08:56:24.815Z,101583.98
2023-12-13T08:58:38.123Z,101584.09
2023-12-13T09:00:51.216Z,101585.16
2023-12-13T09:03:04.653Z,101586.92
2023-12-13T09:05:17.623Z,101597.38
2023-12-13T09:07:30.363Z,101595.20
2023-12-13T09:09:43.857Z,101598.89
2023-12-13T09:11:56.986Z,101599.84
2023-12-13T09:14:09.803Z,101599.52
2023-12-13T09:16:22.396Z,101602.92
2023-12-13T09:18:35.155Z,101601.31
2023-12-13T09:20:48.150Z,101593.96
2023-12-13T09:23:01.143Z,101593.16
2023-12-13T09:25:16.585Z,101597.02
2023-12-13T09:27:31.562Z,101593.90
2023-12-13T09:29:45.168Z,101595.83
2023-12-13T09:31:57.833Z,101591.10
2023-12-13T09:34:10.486Z,101594.53
2023-12-13T09:36:23.198Z,101591.16
2023-12-13T09:38:36.286Z,101585.40
2023-12-13T09:40:50.683Z,101572.53
2023-12-13T09:43:04.211Z,101575.06
2023-12-13T09:45:22.954Z,101575.91
2023-12-13T09:47:40.259Z,101579.87
2023-12-13T09:49:54.535Z,101586.29
2023-12-13T09:52:10.418Z,101573.06
2023-12-13T09:54:24.027Z,101585.39
2023-12-13T09:56:36.577Z,101571.14
2023-12-13T09:58:49.452Z,101575.59
2023-12-13T10:01:02.543Z,101572.61
2023-12-13T10:03:15.302Z,101580.05
2023-12-13T10:05:30.572Z,101576.67
2023-12-13T10:07:43.202Z,101570.14
2023-12-13T10:09:57.837Z,101574.33
2023-12-13T10:12:14.511Z,101565.73
2023-12-13T10:14:27.344Z,101556.12
2023-12-13T10:16:44.414Z,101555.73
2023-12-13T10:18:57.595Z,101553.93
2023-12-13T10:21:12.102Z,101558.52
2023-12-13T10:23:25.298Z,101555.98
2023-12-13T10:25:40.473Z,101557.69
2023-12-13T10:27:53.265Z,101562.83
2023-12-13T10:30:06.612Z,101561.16
2023-12-13T10:32:20.897Z,101560.02
2023-12-13T10:34:33.401Z,101553.83
2023-12-13T10:36:46.751Z,101556.52
2023-12-13T10:38:59.948Z,101551.38
2023-12-13T10:41:15.587Z,101555.98
2023-12-13T10:43:28.306Z,101561.44
2023-12-13T10:45:43.849Z,101560.31
2023-12-13T10:47:59.811Z,101547.70
2023-12-13T10:50:14.498Z,101537.02
2023-12-13T10:52:28.679Z,101527.03
2023-12-13T10:54:43.822Z,101519.87
2023-12-13T10:56:57.453Z,101519.94
2023-12-13T10:59:11.327Z,101496.95
2023-12-13T11:01:25.235Z,101507.13
2023-12-13T11:03:44.370Z,101517.71
2023-12-13T11:05:58.278Z,101517.42
2023-12-13T11:08:21.409Z,101513.55
2023-12-13T11:10:34.128Z,101516.64
2023-12-13T11:12:54.417Z,101512.98
2023-12-13T11:15:14.376Z,101519.52
2023-12-13T11:17:27.955Z,101524.78
2023-12-13T11:19:43.334Z,101535.62
2023-12-13T11:21:56.348Z,101530.42
2023-12-13T11:24:19.240Z,101544.39
2023-12-13T11:26:34.890Z,101540.23
2023-12-13T11:28:52.199Z,101550.75
2023-12-13T11:31:06.215Z,101556.69
2023-12-13T11:33:23.975Z,101570.27
2023-12-13T11:35:38.818Z,101570.54
2023-12-13T11:37:55.338Z,101584.87
2023-12-13T11:40:09.292Z,101592.06
2023-12-13T11:42:21.910Z,101592.61
2023-12-13T11:44:36.869Z,101587.06
2023-12-13T11:47:13.117Z,101586.09
2023-12-13T11:49:28.574Z,101586.65
2023-12-13T11:51:42.023Z,101588.30
2023-12-13T11:53:55.373Z,101588.13
2023-12-13T11:56:12.383Z,101588.81
2023-12-13T11:58:24.996Z,101587.05
2023-12-13T12:00:37.677Z,101588.73
2023-12-13T12:02:50.591Z,101579.54
2023-12-13T12:05:08.684Z,101580.25
2023-12-13T12:07:23.256Z,101580.54
2023-12-13T12:09:37.457Z,101581.30
2023-12-13T12:11:55.771Z,101575.69
2023-12-13T12:14:11.315Z,101584.20
2023-12-13T12:16:24.578Z,101575.02
2023-12-13T12:18:37.317Z,101579.06
2023-12-13T12:20:50.307Z,101575.59
2023-12-13T12:23:05.150Z,101583.27
2023-12-13T12:25:18.689Z,101583.19
2023-12-13T12:27:31.479Z,101577.86
2023-12-13T12:29:44.440Z,101579.56
2023-12-13T12:31:57.208Z,101574.05
2023-12-13T12:34:09.948Z,101577.77
2023-12-13T12:36:23.311Z,101578.42
2023-12-13T12:38:36.648Z,101574.09
2023-12-13T12:40:50.614Z,101570.30
2023-12-13T12:43:03.673Z,101571.80
2023-12-13T12:45:17.058Z,101566.31
2023-12-13T12:47:29.908Z,101572.34
2023-12-13T12:49:42.331Z,101577.84
2023-12-13T12:51:55.413Z,101580.06
2023-12-13T12:54:09.728Z,101578.77
2023-12-13T12:56:23.237Z,101581.80
2023-12-13T12:58:36.205Z,101580.84
2023-12-13T13:00:48.659Z,101577.75
2023-12-13T13:03:02.354Z,101577.08
2023-12-13T13:05:16.441Z,101570.23
2023-12-13T13:07:30.047Z,101566.77
2023-12-13T13:09:42.958Z,101563.52
2023-12-13T13:11:55.462Z,101566.09
2023-12-13T13:14:08.593Z,101559.92
2023-12-13T13:16:23.363Z,101549.32
2023-12-13T13:18:35.920Z,101543.71
2023-12-13T13:20:48.357Z,101538.83
2023-12-13T13:23:00.927Z,101534.23
2023-12-13T13:25:14.465Z,101530.36
2023-12-13T13:27:29.126Z,101534.89
2023-12-13T13:29:44.075Z,101532.36
2023-12-13T13:31:56.791Z,101532.55
2023-12-13T13:34:09.281Z,101526.73
2023-12-13T13:36:22.629Z,101519.45
2023-12-13T13:38:35.276Z,101517.15
2023-12-13T13:40:48.453Z,101515.91
2023-12-13T13:43:02.132Z,101504.75
2023-12-13T13:45:17.308Z,101514.96
2023-12-13T13:47:30.297Z,101514.45
2023-12-13T13:49:43.044Z,101512.61
2023-12-13T13:51:55.656Z,101526.42
2023-12-13T13:54:09.138Z,101525.80
2023-12-13T13:56:26.966Z,101516.89
2023-12-13T13:58:43.116Z,101521.60
2023-12-13T14:00:56.336Z,101525.46
2023-12-13T14:03:09.278Z,101523.70
2023-12-13T14:05:22.056Z,101528.52
2023-12-13T14:07:35.913Z,101530.80
2023-12-13T14:09:48.724Z,101527.79
2023-12-13T14:12:01.661Z,101527.21
2023-12-13T14:14:14.538Z,101514.91
2023-12-13T14:16:27.004Z,101523.11
2023-12-13T14:18:39.596Z,101533.99
2023-12-13T14:20:52.648Z,101532.59
2023-12-13T14:23:07.707Z,101532.98
2023-12-13T14:25:20.854Z,101528.71
2023-12-13T14:27:33.765Z,101531.30
2023-12-13T14:29:47.120Z,101531.91
2023-12-13T14:32:00.027Z,101535.09
2023-12-13T14:34:14.059Z,101532.71
2023-12-13T14:36:26.870Z,101540.16
2023-12-13T14:38:39.936Z,101535.96
2023-12-13T14:40:52.620Z,101537.56
2023-12-13T14:43:08.544Z,101541.38
2023-12-13T14:45:22.113Z,101539.02
2023-12-13T14:47:35.825Z,101532.63
2023-12-13T14:49:48.626Z,101534.75
2023-12-13T14:52:01.233Z,101535.33
2023-12-13T14:54:14.031Z,101534.45
2023-12-13T14:56:27.638Z,101540.82
2023-12-13T14:58:42.453Z,101536.39
2023-12-13T15:00:55.360Z,101541.11
2023-12-13T15:03:10.619Z,101532.60
2023-12-13T15:05:24.094Z,101528.20
2023-12-13T15:07:37.611Z,101527.81
2023-12-13T15:09:51.085Z,101529.39
2023-12-13T15:12:03.622Z,101531.02
2023-12-13T15:14:17.184Z,101527.84
2023-12-13T15:16:31.110Z,101523.39
2023-12-13T15:18:44.651Z,101522.83
2023-12-13T15:20:57.262Z,101513.94
2023-12-13T15:23:11.200Z,101513.85
2023-12-13T15:25:23.817Z,101510.92
2023-12-13T15:27:36.630Z,101511.46
2023-12-13T15:29:49.624Z,101508.52
2023-12-13T15:32:02.274Z,101512.21
2023-12-13T15:34:17.204Z,101509.03
2023-12-13T15:36:30.194Z,101515.71
2023-12-13T15:38:42.984Z,101519.70
2023-12-13T15:40:55.699Z,101518.38
2023-12-13T15:43:10.030Z,101524.73
2023-12-13T15:45:23.243Z,101528.50
2023-12-13T15:47:36.425Z,101525.54
2023-12-13T15:49:50.430Z,101528.76
2023-12-13T15:52:05.443Z,101533.89
2023-12-13T15:54:18.362Z,101542.09
2023-12-13T15:56:35.299Z,101542.09
2023-12-13T15:58:48.134Z,101546.16
2023-12-13T16:01:01.157Z,101537.88
2023-12-13T16:03:14.992Z,101541.83
2023-12-13T16:05:27.822Z,101532.32
2023-12-13T16:07:43.592Z,101533.73
2023-12-13T16:09:56.542Z,101530.52
2023-12-13T16:12:10.725Z,101543.58
2023-12-13T16:14:25.259Z,101545.65
2023-12-13T16:16:37.965Z,101552.86
2023-12-13T16:18:50.624Z,101557.84
2023-12-13T16:21:03.933Z,101566.62
2023-12-13T16:23:16.750Z,101565.43
2023-12-13T16:25:29.254Z,101559.52
2023-12-13T16:27:41.852Z,101557.76
2023-12-13T16:29:54.925Z,101558.88
2023-12-13T16:32:08.065Z,101560.23
2023-12-13T16:34:20.975Z,101553.05
2023-12-13T16:36:33.678Z,101547.83
2023-12-13T16:38:46.272Z,101550.63
2023-12-13T16:40:59.020Z,101543.89
2023-12-13T16:43:12.029Z,101543.95
2023-12-13T16:45:24.649Z,101551.66
2023-12-13T16:47:37.750Z,101550.33
2023-12-13T16:49:52.390Z,101556.20
2023-12-13T16:52:05.014Z,101545.95
2023-12-13T16:54:18.245Z,101545.02
2023-12-13T16:56:30.744Z,101550.25
2023-12-13T16:58:43.491Z,101541.55
2023-12-13T17:00:58.094Z,101548.48
2023-12-13T17:03:11.077Z,101550.30
2023-12-13T17:05:23.812Z,101549.90
2023-12-13T17:07:37.105Z,101549.33
2023-12-13T17:09:49.956Z,101542.41
2023-12-13T17:12:02.878Z,101540.90
2023-12-13T17:14:15.737Z,101542.64
2023-12-13T17:16:28.716Z,101543.60
2023-12-13T17:18:41.598Z,101542.05
2023-12-13T17:20:54.407Z,101544.95
2023-12-13T17:23:08.492Z,101545.66
2023-12-13T17:25:23.295Z,101549.90
2023-12-13T17:27:36.480Z,101554.10
2023-12-13T17:29:49.173Z,101559.36
2023-12-13T17:32:01.914Z,101562.52
2023-12-13T17:34:14.610Z,101568.40
2023-12-13T17:36:27.058Z,101574.37
2023-12-13T17:38:40.550Z,101569.66
2023-12-13T17:40:53.384Z,101568.60
2023-12-13T17:43:06.111Z,101565.49
2023-12-13T17:45:18.828Z,101559.02
2023-12-13T17:47:31.925Z,101576.44
2023-12-13T17:52:13.930Z,101573.60
2023-12-13T17:54:26.744Z,101574.93
2023-12-13T17:56:39.564Z,101568.25
2023-12-13T17:58:53.638Z,101576.96
2023-12-13T18:01:06.106Z,101575.74
2023-12-13T18:03:26.694Z,101574.69
2023-12-13T18:05:40.819Z,101570.15
2023-12-13T18:07:53.637Z,101565.56
2023-12-13T18:10:08.466Z,101563.34
2023-12-13T18:12:20.825Z,101576.66
2023-12-13T18:14:33.150Z,101571.02
2023-12-13T18:16:46.005Z,101576.78
2023-12-13T18:21:25.620Z,101581.98
2023-12-13T18:23:38.446Z,101578.02
2023-12-13T18:25:54.292Z,101577.98
2023-12-13T18:28:06.524Z,101577.42
2023-12-13T18:30:19.801Z,101570.05
2023-12-13T18:32:32.790Z,101565.81
2023-12-13T18:34:46.829Z,101568.90
2023-12-13T18:37:05.618Z,101563.61
2023-12-13T18:39:18.134Z,101558.06
2023-12-13T18:41:30.472Z,101563.25
2023-12-13T18:43:42.953Z,101566.86
2023-12-13T18:48:21.484Z,101555.25
2023-12-13T18:50:33.854Z,101555.10
2023-12-13T18:52:49.061Z,101549.80
2023-12-13T18:55:03.261Z,101550.16
2023-12-13T18:57:15.940Z,101547.66
2023-12-13T18:59:28.416Z,101544.70
2023-12-13T19:04:08.910Z,101532.75
2023-12-13T19:06:21.768Z,101532.94
2023-12-13T19:08:39.005Z,101525.16
2023-12-13T19:11:05.947Z,101524.69
2023-12-13T19:13:21.199Z,101522.33
2023-12-13T19:15:33.752Z,101512.48
2023-12-13T19:17:46.164Z,101513.95
2023-12-13T19:19:59.101Z,101512.62
2023-12-13T19:22:12.577Z,101512.36
2023-12-13T19:24:25.173Z,101507.40
2023-12-13T19:26:37.944Z,101505.79
2023-12-13T19:28:50.486Z,101502.23
2023-12-13T19:31:02.983Z,101498.98
2023-12-13T19:33:15.478Z,101490.85
2023-12-13T19:35:28.074Z,101483.03
2023-12-13T19:37:41.644Z,101484.83
2023-12-13T19:39:54.475Z,101474.89
2023-12-13T19:42:06.972Z,101480.63
2023-12-13T19:44:19.284Z,101471.45
2023-12-13T19:46:32.103Z,101473.48
2023-12-13T19:48:45.571Z,101466.65
2023-12-13T19:50:58.213Z,101466.59
2023-12-13T19:53:11.077Z,101460.48
2023-12-13T19:55:23.962Z,101453.04
2023-12-13T19:57:36.582Z,101453.23
2023-12-13T19:59:49.364Z,101453.63
2023-12-13T20:02:03.377Z,101453.60
2023-12-13T20:04:15.768Z,101446.58
2023-12-13T20:06:28.149Z,101446.73
2023-12-13T20:08:40.529Z,101453.35
2023-12-13T20:10:53.005Z,101452.42
2023-12-13T20:13:05.371Z,101453.41
2023-12-13T20:15:20.919Z,101454.39
2023-12-13T20:17:34.314Z,101456.31
2023-12-13T20:19:47.041Z,101456.02
2023-12-13T20:21:59.586Z,101444.02
2023-12-13T20:24:12.383Z,101445.42
2023-12-13T20:26:25.163Z,101430.18
2023-12-13T20:28:39.072Z,101442.58
2023-12-13T20:30:51.574Z,101441.12
2023-12-13T20:33:04.753Z,101446.73
2023-12-13T20:35:17.510Z,101451.38
2023-12-13T20:37:30.284Z,101458.45
2023-12-13T20:39:43.709Z,101450.59
2023-12-13T20:41:56.023Z,101460.95
2023-12-13T20:44:08.831Z,101460.73
2023-12-13T20:46:21.302Z,101466.58
2023-12-13T20:48:33.729Z,101458.95
2023-12-13T20:50:46.086Z,101457.60
2023-12-13T20:52:58.665Z,101452.45
2023-12-13T20:55:11.947Z,101446.87
2023-12-13T20:57:26.070Z,101440.20
2023-12-13T20:59:38.964Z,101440.80
2023-12-13T21:01:51.667Z,101439.45
2023-12-13T21:04:04.131Z,101441.95
2023-12-13T21:06:16.997Z,101430.91
2023-12-13T21:08:29.353Z,101419.38
2023-12-13T21:10:41.747Z,101417.06
2023-12-13T21:12:54.558Z,101400.52
2023-12-13T21:15:08.301Z,101403.59
2023-12-13T21:17:20.738Z,101404.58
2023-12-13T21:19:33.480Z,101407.41
2023-12-13T21:21:45.948Z,101402.95
2023-12-13T21:24:10.233Z,101394.04
2023-12-13T21:26:31.191Z,101392.81
2023-12-13T21:28:44.474Z,101387.86
2023-12-13T21:30:57.956Z,101400.52
2023-12-13T21:33:10.617Z,101396.95
2023-12-13T21:35:23.208Z,101391.59
2023-12-13T21:37:35.645Z,101384.95
2023-12-13T21:39:48.472Z,101379.30
2023-12-13T21:42:01.106Z,101382.73
2023-12-13T21:44:13.798Z,101389.98
2023-12-13T21:46:29.944Z,101389.33
2023-12-13T21:48:42.718Z,101392.70
2023-12-13T21:50:55.389Z,101396.46
2023-12-13T21:53:07.734Z,101378.83
2023-12-13T21:55:21.709Z,101380.23
2023-12-13T21:57:34.618Z,101374.79
2023-12-13T21:59:47.363Z,101364.02
2023-12-13T22:02:00.171Z,101364.64
2023-12-13T22:04:12.794Z,101359.29
2023-12-13T22:06:25.252Z,101354.20
2023-12-13T22:08:39.011Z,101354.11
2023-12-13T22:10:51.727Z,101344.92
2023-12-13T22:13:04.142Z,101349.59
2023-12-13T22:15:17.393Z,101343.23
2023-12-13T22:17:34.040Z,101347.08
2023-12-13T22:19:53.543Z,101343.73
2023-12-13T22:22:05.888Z,101350.03
2023-12-13T22:24:18.163Z,101353.15
2023-12-13T22:26:30.851Z,101351.49
2023-12-13T22:28:43.032Z,101353.55
2023-12-13T22:30:55.754Z,101353.48
2023-12-13T22:33:08.275Z,101352.77
2023-12-13T22:35:21.009Z,101344.80
2023-12-13T22:37:33.301Z,101342.97
2023-12-13T22:39:45.824Z,101345.73
2023-12-13T22:41:58.361Z,101346.52
2023-12-13T22:44:11.865Z,101339.09
2023-12-13T22:46:24.411Z,101344.66
2023-12-13T22:48:36.696Z,101339.73
2023-12-13T22:50:49.231Z,101333.55
2023-12-13T22:53:01.642Z,101342.89
2023-12-13T22:55:14.858Z,101342.44
2023-12-13T22:57:27.141Z,101344.41
2023-12-13T22:59:40.348Z,101339.86
2023-12-13T23:01:57.694Z,101346.36
2023-12-13T23:04:11.787Z,101346.74
2023-12-13T23:06:24.451Z,101343.21
2023-12-13T23:08:36.868Z,101346.55
2023-12-13T23:10:49.695Z,101347.42
2023-12-13T23:13:02.294Z,101353.99
2023-12-13T23:15:16.215Z,101350.92
2023-12-13T23:17:28.936Z,101344.94
2023-12-13T23:19:41.562Z,101341.98
2023-12-13T23:21:53.822Z,101345.94
2023-12-13T23:24:06.324Z,101354.31
2023-12-13T23:26:18.969Z,101353.76
2023-12-13T23:28:31.582Z,101357.65
2023-12-13T23:30:44.250Z,101355.09
2023-12-13T23:32:57.090Z,101358.82
2023-12-13T23:35:10.418Z,101355.12
2023-12-13T23:37:22.801Z,101362.06
2023-12-13T23:39:35.149Z,101368.62
2023-12-13T23:41:47.426Z,101368.98
2023-12-13T23:44:00.083Z,101370.70
2023-12-13T23:46:14.906Z,101372.52
2023-12-13T23:48:27.124Z,101364.77
2023-12-13T23:50:39.794Z,101368.14
2023-12-13T23:52:52.169Z,101368.98
2023-12-13T23:55:04.614Z,101365.89
2023-12-13T23:57:16.869Z,101365.00
2023-12-13T23:59:29.194Z,101362.29
